sensor_id;sensor_type;location;lat;lon;timestamp;temperature;humidity
43808;DHT22;29438;50.664;10.098;2022-12-18T00:01:04;-3266.00;90.30
43808;DHT22;29438;50.664;10.098;2022-12-18T00:03:35;-3266.00;90.20
43808;DHT22;29438;50.664;10.098;2022-12-18T00:06:01;-3266.00;90.20
43808;DHT22;29438;50.664;10.098;2022-12-18T00:08:26;-3265.90;90.20
43808;DHT22;29438;50.664;10.098;2022-12-18T00:10:52;-3265.90;90.30
43808;DHT22;29438;50.664;10.098;2022-12-18T00:13:18;-3266.00;90.30
43808;DHT22;29438;50.664;10.098;2022-12-18T00:15:43;-3265.90;90.20
43808;DHT22;29438;50.664;10.098;2022-12-18T00:18:09;-3265.90;90.20
43808;DHT22;29438;50.664;10.098;2022-12-18T00:20:37;-3265.90;90.20
43808;DHT22;29438;50.664;10.098;2022-12-18T00:23:03;-3265.90;90.20
43808;DHT22;29438;50.664;10.098;2022-12-18T00:25:29;-3265.90;90.20
43808;DHT22;29438;50.664;10.098;2022-12-18T00:27:55;-3265.90;90.20
43808;DHT22;29438;50.664;10.098;2022-12-18T00:30:21;-3265.90;90.20
43808;DHT22;29438;50.664;10.098;2022-12-18T00:32:46;-3265.90;90.20
43808;DHT22;29438;50.664;10.098;2022-12-18T00:35:12;-3265.90;90.30
43808;DHT22;29438;50.664;10.098;2022-12-18T00:37:37;-3265.90;90.30
43808;DHT22;29438;50.664;10.098;2022-12-18T00:40:03;-3265.90;90.30
43808;DHT22;29438;50.664;10.098;2022-12-18T00:42:29;-3265.90;90.20
43808;DHT22;29438;50.664;10.098;2022-12-18T00:45:13;-3265.90;90.20
43808;DHT22;29438;50.664;10.098;2022-12-18T00:47:39;-3265.90;90.20
43808;DHT22;29438;50.664;10.098;2022-12-18T00:50:05;-3265.80;90.20
43808;DHT22;29438;50.664;10.098;2022-12-18T00:52:31;-3265.90;90.20
43808;DHT22;29438;50.664;10.098;2022-12-18T00:54:56;-3265.80;90.30
43808;DHT22;29438;50.664;10.098;2022-12-18T00:57:22;-3265.80;90.20
43808;DHT22;29438;50.664;10.098;2022-12-18T00:59:47;-3265.70;90.00
43808;DHT22;29438;50.664;10.098;2022-12-18T01:02:13;-3265.70;89.70
43808;DHT22;29438;50.664;10.098;2022-12-18T01:04:38;-3265.70;89.50
43808;DHT22;29438;50.664;10.098;2022-12-18T01:07:04;-3265.80;89.40
43808;DHT22;29438;50.664;10.098;2022-12-18T01:09:30;-3265.80;89.30
43808;DHT22;29438;50.664;10.098;2022-12-18T01:11:55;-3266.00;89.30
43808;DHT22;29438;50.664;10.098;2022-12-18T01:14:21;-3265.80;89.10
43808;DHT22;29438;50.664;10.098;2022-12-18T01:16:46;-3265.90;89.00
43808;DHT22;29438;50.664;10.098;2022-12-18T01:19:12;-3265.70;88.80
43808;DHT22;29438;50.664;10.098;2022-12-18T01:21:38;-3265.80;88.80
43808;DHT22;29438;50.664;10.098;2022-12-18T01:24:04;-3265.70;88.70
43808;DHT22;29438;50.664;10.098;2022-12-18T01:26:30;-3265.70;88.60
43808;DHT22;29438;50.664;10.098;2022-12-18T01:28:56;-3265.70;88.60
43808;DHT22;29438;50.664;10.098;2022-12-18T01:31:27;-3265.70;88.60
43808;DHT22;29438;50.664;10.098;2022-12-18T01:33:54;-3265.70;88.60
43808;DHT22;29438;50.664;10.098;2022-12-18T01:36:30;-3265.90;88.90
43808;DHT22;29438;50.664;10.098;2022-12-18T01:39:00;-3266.00;88.90
43808;DHT22;29438;50.664;10.098;2022-12-18T01:41:28;-3266.00;88.90
43808;DHT22;29438;50.664;10.098;2022-12-18T01:47:15;-3266.10;89.00
43808;DHT22;29438;50.664;10.098;2022-12-18T01:49:43;-3266.00;88.80
43808;DHT22;29438;50.664;10.098;2022-12-18T01:52:09;-3266.00;88.80
43808;DHT22;29438;50.664;10.098;2022-12-18T01:54:34;-3265.90;88.80
43808;DHT22;29438;50.664;10.098;2022-12-18T01:57:00;-3265.90;88.80
43808;DHT22;29438;50.664;10.098;2022-12-18T01:59:26;-3265.90;88.80
43808;DHT22;29438;50.664;10.098;2022-12-18T02:01:53;-3265.90;88.90
43808;DHT22;29438;50.664;10.098;2022-12-18T02:04:23;-3265.90;88.70
43808;DHT22;29438;50.664;10.098;2022-12-18T02:07:00;-3265.90;88.70
43808;DHT22;29438;50.664;10.098;2022-12-18T02:09:35;-3265.80;88.60
43808;DHT22;29438;50.664;10.098;2022-12-18T02:12:34;-3265.70;88.40
43808;DHT22;29438;50.664;10.098;2022-12-18T02:18:12;-3265.60;88.30
43808;DHT22;29438;50.664;10.098;2022-12-18T02:20:48;-3265.50;88.20
43808;DHT22;29438;50.664;10.098;2022-12-18T02:23:42;-3265.50;88.20
43808;DHT22;29438;50.664;10.098;2022-12-18T02:26:22;-3265.50;88.20
43808;DHT22;29438;50.664;10.098;2022-12-18T02:31:22;-3265.50;88.30
43808;DHT22;29438;50.664;10.098;2022-12-18T02:33:50;-3265.50;88.30
43808;DHT22;29438;50.664;10.098;2022-12-18T02:36:17;-3265.50;88.30
43808;DHT22;29438;50.664;10.098;2022-12-18T02:38:44;-3265.40;88.20
43808;DHT22;29438;50.664;10.098;2022-12-18T02:41:11;-3265.50;88.40
43808;DHT22;29438;50.664;10.098;2022-12-18T02:43:37;-3265.60;88.50
43808;DHT22;29438;50.664;10.098;2022-12-18T02:46:26;-3265.40;88.50
43808;DHT22;29438;50.664;10.098;2022-12-18T02:48:56;-3265.30;88.40
43808;DHT22;29438;50.664;10.098;2022-12-18T02:51:32;-3265.30;88.40
43808;DHT22;29438;50.664;10.098;2022-12-18T02:54:10;-3265.50;88.60
43808;DHT22;29438;50.664;10.098;2022-12-18T02:56:44;-3265.70;88.90
43808;DHT22;29438;50.664;10.098;2022-12-18T02:59:25;-3265.90;89.00
43808;DHT22;29438;50.664;10.098;2022-12-18T03:02:10;-3265.90;89.20
43808;DHT22;29438;50.664;10.098;2022-12-18T03:10:14;-3265.60;88.60
43808;DHT22;29438;50.664;10.098;2022-12-18T03:12:44;-3265.60;88.60
43808;DHT22;29438;50.664;10.098;2022-12-18T03:17:45;-3265.70;88.60
43808;DHT22;29438;50.664;10.098;2022-12-18T03:20:19;-3265.60;88.60
43808;DHT22;29438;50.664;10.098;2022-12-18T03:22:48;-3266.00;88.90
43808;DHT22;29438;50.664;10.098;2022-12-18T03:25:16;-3265.70;88.80
43808;DHT22;29438;50.664;10.098;2022-12-18T03:27:49;-3266.00;89.20
43808;DHT22;29438;50.664;10.098;2022-12-18T03:30:17;-3265.70;88.80
43808;DHT22;29438;50.664;10.098;2022-12-18T03:35:20;-3265.90;89.10
43808;DHT22;29438;50.664;10.098;2022-12-18T03:37:46;-3266.00;89.20
43808;DHT22;29438;50.664;10.098;2022-12-18T03:40:12;-3266.20;89.30
43808;DHT22;29438;50.664;10.098;2022-12-18T03:45:13;-3265.90;88.90
43808;DHT22;29438;50.664;10.098;2022-12-18T03:50:21;-3265.90;89.10
43808;DHT22;29438;50.664;10.098;2022-12-18T03:53:00;-3265.80;88.90
43808;DHT22;29438;50.664;10.098;2022-12-18T03:55:31;-3265.80;88.90
43808;DHT22;29438;50.664;10.098;2022-12-18T03:57:57;-3265.80;88.60
43808;DHT22;29438;50.664;10.098;2022-12-18T04:00:24;-3265.80;88.80
43808;DHT22;29438;50.664;10.098;2022-12-18T04:02:53;-3265.80;88.80
43808;DHT22;29438;50.664;10.098;2022-12-18T04:05:20;-3265.90;89.10
43808;DHT22;29438;50.664;10.098;2022-12-18T04:07:47;-3265.80;88.80
43808;DHT22;29438;50.664;10.098;2022-12-18T04:10:15;-3265.70;88.60
43808;DHT22;29438;50.664;10.098;2022-12-18T04:12:42;-3265.80;89.00
43808;DHT22;29438;50.664;10.098;2022-12-18T04:15:08;-3265.80;88.80
43808;DHT22;29438;50.664;10.098;2022-12-18T04:17:34;-3265.90;88.70
43808;DHT22;29438;50.664;10.098;2022-12-18T04:19:59;-3266.00;88.90
43808;DHT22;29438;50.664;10.098;2022-12-18T04:22:26;-3265.90;88.70
43808;DHT22;29438;50.664;10.098;2022-12-18T04:24:52;-3265.80;88.60
43808;DHT22;29438;50.664;10.098;2022-12-18T04:27:17;-3265.70;88.60
43808;DHT22;29438;50.664;10.098;2022-12-18T04:29:43;-3265.60;88.60
43808;DHT22;29438;50.664;10.098;2022-12-18T04:32:08;-3265.60;88.50
43808;DHT22;29438;50.664;10.098;2022-12-18T04:34:34;-3265.60;88.50
43808;DHT22;29438;50.664;10.098;2022-12-18T04:37:00;-3266.30;89.30
43808;DHT22;29438;50.664;10.098;2022-12-18T04:39:25;-3266.30;89.40
43808;DHT22;29438;50.664;10.098;2022-12-18T04:41:51;-3267.10;90.80
43808;DHT22;29438;50.664;10.098;2022-12-18T04:44:16;-3267.20;90.50
43808;DHT22;29438;50.664;10.098;2022-12-18T04:46:42;-3267.40;90.40
43808;DHT22;29438;50.664;10.098;2022-12-18T04:49:08;-3267.10;89.80
43808;DHT22;29438;50.664;10.098;2022-12-18T04:51:35;-3266.80;89.50
43808;DHT22;29438;50.664;10.098;2022-12-18T04:54:01;-3266.90;89.60
43808;DHT22;29438;50.664;10.098;2022-12-18T04:56:27;-3267.10;90.20
43808;DHT22;29438;50.664;10.098;2022-12-18T04:58:52;-3267.30;90.30
43808;DHT22;29438;50.664;10.098;2022-12-18T05:01:18;-3267.40;90.20
43808;DHT22;29438;50.664;10.098;2022-12-18T05:03:44;-3267.70;90.80
43808;DHT22;29438;50.664;10.098;2022-12-18T05:06:10;-3267.90;90.80
43808;DHT22;29438;50.664;10.098;2022-12-18T05:08:36;-3268.00;91.00
43808;DHT22;29438;50.664;10.098;2022-12-18T05:11:13;-3268.30;91.20
43808;DHT22;29438;50.664;10.098;2022-12-18T05:13:43;-3268.30;90.90
43808;DHT22;29438;50.664;10.098;2022-12-18T05:16:09;-3268.20;90.60
43808;DHT22;29438;50.664;10.098;2022-12-18T05:18:35;-3268.00;90.30
43808;DHT22;29438;50.664;10.098;2022-12-18T05:21:00;-3268.30;90.80
43808;DHT22;29438;50.664;10.098;2022-12-18T05:23:26;-3268.30;90.70
43808;DHT22;29438;50.664;10.098;2022-12-18T05:25:57;-3268.10;90.50
43808;DHT22;29438;50.664;10.098;2022-12-18T05:28:25;-3268.00;90.20
43808;DHT22;29438;50.664;10.098;2022-12-18T05:30:54;-3268.00;90.30
43808;DHT22;29438;50.664;10.098;2022-12-18T05:33:21;-3267.90;90.20
43808;DHT22;29438;50.664;10.098;2022-12-18T05:35:54;-3267.70;90.00
43808;DHT22;29438;50.664;10.098;2022-12-18T05:38:21;-3267.70;90.00
43808;DHT22;29438;50.664;10.098;2022-12-18T05:40:51;-3267.70;90.00
43808;DHT22;29438;50.664;10.098;2022-12-18T05:43:17;-3267.80;90.10
43808;DHT22;29438;50.664;10.098;2022-12-18T05:45:43;-3267.70;90.00
43808;DHT22;29438;50.664;10.098;2022-12-18T05:48:09;-3267.40;89.80
43808;DHT22;29438;50.664;10.098;2022-12-18T05:50:39;-3267.70;90.20
43808;DHT22;29438;50.664;10.098;2022-12-18T05:53:05;-3267.50;90.00
43808;DHT22;29438;50.664;10.098;2022-12-18T05:55:35;-3267.40;89.70
43808;DHT22;29438;50.664;10.098;2022-12-18T05:58:02;-3267.30;89.70
43808;DHT22;29438;50.664;10.098;2022-12-18T06:00:28;-3267.40;89.70
43808;DHT22;29438;50.664;10.098;2022-12-18T06:02:54;-3267.20;89.60
43808;DHT22;29438;50.664;10.098;2022-12-18T06:05:19;-3267.00;89.40
43808;DHT22;29438;50.664;10.098;2022-12-18T06:07:45;-3266.90;89.50
43808;DHT22;29438;50.664;10.098;2022-12-18T06:10:10;-3266.90;89.40
43808;DHT22;29438;50.664;10.098;2022-12-18T06:12:37;-3266.80;89.50
43808;DHT22;29438;50.664;10.098;2022-12-18T06:15:03;-3266.80;89.30
43808;DHT22;29438;50.664;10.098;2022-12-18T06:17:32;-3266.90;89.80
43808;DHT22;29438;50.664;10.098;2022-12-18T06:19:58;-3266.60;89.40
43808;DHT22;29438;50.664;10.098;2022-12-18T06:22:24;-3266.60;89.40
43808;DHT22;29438;50.664;10.098;2022-12-18T06:24:50;-3266.90;89.80
43808;DHT22;29438;50.664;10.098;2022-12-18T06:27:15;-3266.80;89.60
43808;DHT22;29438;50.664;10.098;2022-12-18T06:29:41;-3266.80;89.60
43808;DHT22;29438;50.664;10.098;2022-12-18T06:32:07;-3266.70;89.50
43808;DHT22;29438;50.664;10.098;2022-12-18T06:34:33;-3266.80;89.50
43808;DHT22;29438;50.664;10.098;2022-12-18T06:36:59;-3266.70;89.50
43808;DHT22;29438;50.664;10.098;2022-12-18T06:39:26;-3266.60;89.40
43808;DHT22;29438;50.664;10.098;2022-12-18T06:41:52;-3266.50;89.30
43808;DHT22;29438;50.664;10.098;2022-12-18T06:44:18;-3266.60;89.20
43808;DHT22;29438;50.664;10.098;2022-12-18T06:46:43;-3266.50;89.20
43808;DHT22;29438;50.664;10.098;2022-12-18T06:49:09;-3266.50;89.10
43808;DHT22;29438;50.664;10.098;2022-12-18T06:51:35;-3266.70;89.30
43808;DHT22;29438;50.664;10.098;2022-12-18T06:54:01;-3266.70;89.30
43808;DHT22;29438;50.664;10.098;2022-12-18T06:56:26;-3266.70;89.30
43808;DHT22;29438;50.664;10.098;2022-12-18T06:58:52;-3266.60;89.20
43808;DHT22;29438;50.664;10.098;2022-12-18T07:01:18;-3266.50;89.10
43808;DHT22;29438;50.664;10.098;2022-12-18T07:03:44;-3266.50;89.30
43808;DHT22;29438;50.664;10.098;2022-12-18T07:06:16;-3266.50;89.20
43808;DHT22;29438;50.664;10.098;2022-12-18T07:08:42;-3266.70;89.50
43808;DHT22;29438;50.664;10.098;2022-12-18T07:11:07;-3266.90;89.70
43808;DHT22;29438;50.664;10.098;2022-12-18T07:13:33;-3267.10;89.80
43808;DHT22;29438;50.664;10.098;2022-12-18T07:16:13;-3267.20;89.90
43808;DHT22;29438;50.664;10.098;2022-12-18T07:18:39;-3267.40;90.10
43808;DHT22;29438;50.664;10.098;2022-12-18T07:21:06;-3267.30;89.90
43808;DHT22;29438;50.664;10.098;2022-12-18T07:23:33;-3267.30;89.90
43808;DHT22;29438;50.664;10.098;2022-12-18T07:26:10;-3267.30;89.80
43808;DHT22;29438;50.664;10.098;2022-12-18T07:28:38;-3267.40;90.00
43808;DHT22;29438;50.664;10.098;2022-12-18T07:31:09;-3267.60;90.20
43808;DHT22;29438;50.664;10.098;2022-12-18T07:33:35;-3267.60;90.20
43808;DHT22;29438;50.664;10.098;2022-12-18T07:36:02;-3267.70;90.20
43808;DHT22;29438;50.664;10.098;2022-12-18T07:38:29;-3267.50;90.00
43808;DHT22;29438;50.664;10.098;2022-12-18T07:40:59;-3267.50;89.90
43808;DHT22;29438;50.664;10.098;2022-12-18T07:43:25;-3267.50;89.90
43808;DHT22;29438;50.664;10.098;2022-12-18T07:45:50;-3267.40;90.00
43808;DHT22;29438;50.664;10.098;2022-12-18T07:48:16;-3267.40;89.90
43808;DHT22;29438;50.664;10.098;2022-12-18T07:50:41;-3267.50;89.90
43808;DHT22;29438;50.664;10.098;2022-12-18T07:53:07;-3267.50;90.00
43808;DHT22;29438;50.664;10.098;2022-12-18T07:55:32;-3267.60;90.00
43808;DHT22;29438;50.664;10.098;2022-12-18T07:58:01;-3267.60;90.10
43808;DHT22;29438;50.664;10.098;2022-12-18T08:00:27;-3267.90;90.40
43808;DHT22;29438;50.664;10.098;2022-12-18T08:02:53;-3268.40;91.00
43808;DHT22;29438;50.664;10.098;2022-12-18T08:05:18;-3269.10;91.70
43808;DHT22;29438;50.664;10.098;2022-12-18T08:07:46;-3269.90;92.20
43808;DHT22;29438;50.664;10.098;2022-12-18T08:10:11;-3270.60;92.80
43808;DHT22;29438;50.664;10.098;2022-12-18T08:12:37;-3271.20;92.90
43808;DHT22;29438;50.664;10.098;2022-12-18T08:15:03;-3271.60;93.30
43808;DHT22;29438;50.664;10.098;2022-12-18T08:17:28;-3271.60;92.90
43808;DHT22;29438;50.664;10.098;2022-12-18T08:19:54;-3271.90;93.00
43808;DHT22;29438;50.664;10.098;2022-12-18T08:22:20;-3271.70;92.90
43808;DHT22;29438;50.664;10.098;2022-12-18T08:24:45;-3271.70;92.60
43808;DHT22;29438;50.664;10.098;2022-12-18T08:27:11;-3271.50;91.50
43808;DHT22;29438;50.664;10.098;2022-12-18T08:29:36;-3271.50;91.80
43808;DHT22;29438;50.664;10.098;2022-12-18T08:32:02;-3271.80;91.70
43808;DHT22;29438;50.664;10.098;2022-12-18T08:34:28;-3271.90;91.70
43808;DHT22;29438;50.664;10.098;2022-12-18T08:36:53;-3272.20;90.80
43808;DHT22;29438;50.664;10.098;2022-12-18T08:39:19;-3271.90;88.90
43808;DHT22;29438;50.664;10.098;2022-12-18T08:41:44;-3271.90;89.00
43808;DHT22;29438;50.664;10.098;2022-12-18T08:44:30;-3271.60;88.40
43808;DHT22;29438;50.664;10.098;2022-12-18T08:47:06;-3271.40;87.80
43808;DHT22;29438;50.664;10.098;2022-12-18T08:49:33;-3271.50;88.30
43808;DHT22;29438;50.664;10.098;2022-12-18T08:51:58;-3271.70;88.50
43808;DHT22;29438;50.664;10.098;2022-12-18T08:54:24;-3271.70;87.80
43808;DHT22;29438;50.664;10.098;2022-12-18T08:56:50;-3271.70;87.00
43808;DHT22;29438;50.664;10.098;2022-12-18T08:59:17;-3271.60;87.00
43808;DHT22;29438;50.664;10.098;2022-12-18T09:01:42;-3271.20;86.30
43808;DHT22;29438;50.664;10.098;2022-12-18T09:04:09;-3271.00;87.20
43808;DHT22;29438;50.664;10.098;2022-12-18T09:06:35;-3270.90;87.70
43808;DHT22;29438;50.664;10.098;2022-12-18T09:09:02;-3270.90;88.40
43808;DHT22;29438;50.664;10.098;2022-12-18T09:11:28;-3270.90;88.70
43808;DHT22;29438;50.664;10.098;2022-12-18T09:13:54;-3270.90;88.50
43808;DHT22;29438;50.664;10.098;2022-12-18T09:16:20;-3270.90;88.80
43808;DHT22;29438;50.664;10.098;2022-12-18T09:18:47;-3270.90;88.80
43808;DHT22;29438;50.664;10.098;2022-12-18T09:21:20;-3270.90;88.80
43808;DHT22;29438;50.664;10.098;2022-12-18T09:23:50;-3270.90;88.60
43808;DHT22;29438;50.664;10.098;2022-12-18T09:26:16;-3270.90;88.70
43808;DHT22;29438;50.664;10.098;2022-12-18T09:28:42;-3270.90;88.50
43808;DHT22;29438;50.664;10.098;2022-12-18T09:31:10;-3271.20;88.90
43808;DHT22;29438;50.664;10.098;2022-12-18T09:33:37;-3271.30;88.10
43808;DHT22;29438;50.664;10.098;2022-12-18T09:36:09;-3271.50;87.70
43808;DHT22;29438;50.664;10.098;2022-12-18T09:38:35;-3271.80;87.10
43808;DHT22;29438;50.664;10.098;2022-12-18T09:41:06;-3272.10;86.40
43808;DHT22;29438;50.664;10.098;2022-12-18T09:44:03;-3272.10;84.60
43808;DHT22;29438;50.664;10.098;2022-12-18T09:46:34;-3272.10;84.60
43808;DHT22;29438;50.664;10.098;2022-12-18T09:49:05;-3272.00;84.20
43808;DHT22;29438;50.664;10.098;2022-12-18T09:51:47;-3272.00;84.30
43808;DHT22;29438;50.664;10.098;2022-12-18T09:54:35;-3272.00;84.80
43808;DHT22;29438;50.664;10.098;2022-12-18T09:57:02;-3272.00;84.10
43808;DHT22;29438;50.664;10.098;2022-12-18T09:59:38;-3271.90;84.00
43808;DHT22;29438;50.664;10.098;2022-12-18T10:02:20;-3272.20;85.20
43808;DHT22;29438;50.664;10.098;2022-12-18T10:05:34;-3272.20;83.60
43808;DHT22;29438;50.664;10.098;2022-12-18T10:07:41;-3272.30;83.40
43808;DHT22;29438;50.664;10.098;2022-12-18T10:12:56;-3272.10;83.70
43808;DHT22;29438;50.664;10.098;2022-12-18T10:15:27;-3272.30;83.20
43808;DHT22;29438;50.664;10.098;2022-12-18T10:18:02;-3272.30;82.70
43808;DHT22;29438;50.664;10.098;2022-12-18T10:20:49;-3272.70;82.50
43808;DHT22;29438;50.664;10.098;2022-12-18T10:26:13;-3272.60;81.20
43808;DHT22;29438;50.664;10.098;2022-12-18T10:28:40;-3272.50;82.30
43808;DHT22;29438;50.664;10.098;2022-12-18T10:31:07;-3272.90;81.00
43808;DHT22;29438;50.664;10.098;2022-12-18T10:33:37;-3272.70;80.80
43808;DHT22;29438;50.664;10.098;2022-12-18T10:36:03;-3273.10;80.70
43808;DHT22;29438;50.664;10.098;2022-12-18T10:38:31;-3273.10;80.00
43808;DHT22;29438;50.664;10.098;2022-12-18T10:41:02;-3273.30;80.00
43808;DHT22;29438;50.664;10.098;2022-12-18T10:43:36;-3273.20;78.90
43808;DHT22;29438;50.664;10.098;2022-12-18T10:46:04;-3273.00;78.70
43808;DHT22;29438;50.664;10.098;2022-12-18T10:48:32;-3273.20;79.40
43808;DHT22;29438;50.664;10.098;2022-12-18T10:50:58;-3273.50;78.90
43808;DHT22;29438;50.664;10.098;2022-12-18T10:53:27;-3273.20;78.40
43808;DHT22;29438;50.664;10.098;2022-12-18T10:55:56;-3272.40;80.10
43808;DHT22;29438;50.664;10.098;2022-12-18T11:01:04;-3272.70;80.60
43808;DHT22;29438;50.664;10.098;2022-12-18T11:03:33;-3272.40;81.60
43808;DHT22;29438;50.664;10.098;2022-12-18T11:06:16;-3272.80;81.50
43808;DHT22;29438;50.664;10.098;2022-12-18T11:08:45;-3272.50;80.50
43808;DHT22;29438;50.664;10.098;2022-12-18T11:11:23;-3272.20;81.00
43808;DHT22;29438;50.664;10.098;2022-12-18T11:14:22;-3272.40;82.00
43808;DHT22;29438;50.664;10.098;2022-12-18T11:16:49;-3272.50;80.90
43808;DHT22;29438;50.664;10.098;2022-12-18T11:19:36;-3272.70;81.60
43808;DHT22;29438;50.664;10.098;2022-12-18T11:22:53;-3272.30;80.60
43808;DHT22;29438;50.664;10.098;2022-12-18T11:27:38;-3272.10;83.80
43808;DHT22;29438;50.664;10.098;2022-12-18T11:33:33;-3272.50;82.00
43808;DHT22;29438;50.664;10.098;2022-12-18T11:38:26;-3273.10;79.60
43808;DHT22;29438;50.664;10.098;2022-12-18T11:40:56;-3272.80;79.70
43808;DHT22;29438;50.664;10.098;2022-12-18T11:43:35;-3273.00;80.40
43808;DHT22;29438;50.664;10.098;2022-12-18T11:46:14;-3272.90;79.30
43808;DHT22;29438;50.664;10.098;2022-12-18T11:49:12;-3272.80;79.20
43808;DHT22;29438;50.664;10.098;2022-12-18T11:54:28;-3272.40;81.10
43808;DHT22;29438;50.664;10.098;2022-12-18T12:05:20;-3272.60;80.30
43808;DHT22;29438;50.664;10.098;2022-12-18T12:10:48;-3271.90;82.10
43808;DHT22;29438;50.664;10.098;2022-12-18T12:21:10;-3272.60;80.50
43808;DHT22;29438;50.664;10.098;2022-12-18T12:26:36;-3272.50;80.60
43808;DHT22;29438;50.664;10.098;2022-12-18T12:39:51;-3272.70;79.70
43808;DHT22;29438;50.664;10.098;2022-12-18T12:42:34;-3272.60;79.80
43808;DHT22;29438;50.664;10.098;2022-12-18T12:45:39;-3272.60;80.20
43808;DHT22;29438;50.664;10.098;2022-12-18T12:48:16;-3272.60;80.30
43808;DHT22;29438;50.664;10.098;2022-12-18T12:50:42;-3272.50;80.20
43808;DHT22;29438;50.664;10.098;2022-12-18T12:53:18;-3272.40;81.10
43808;DHT22;29438;50.664;10.098;2022-12-18T12:55:47;-3272.20;81.00
43808;DHT22;29438;50.664;10.098;2022-12-18T13:01:53;-3271.90;81.60
43808;DHT22;29438;50.664;10.098;2022-12-18T13:04:47;-3272.00;82.40
43808;DHT22;29438;50.664;10.098;2022-12-18T13:07:33;-3272.20;81.60
43808;DHT22;29438;50.664;10.098;2022-12-18T13:13:09;-3272.40;81.60
43808;DHT22;29438;50.664;10.098;2022-12-18T13:15:46;-3272.30;80.60
43808;DHT22;29438;50.664;10.098;2022-12-18T13:18:21;-3272.20;80.70
43808;DHT22;29438;50.664;10.098;2022-12-18T13:20:50;-3272.20;81.20
43808;DHT22;29438;50.664;10.098;2022-12-18T13:25:55;-3272.10;81.90
43808;DHT22;29438;50.664;10.098;2022-12-18T13:31:14;-3272.10;82.00
43808;DHT22;29438;50.664;10.098;2022-12-18T13:33:43;-3272.20;81.60
43808;DHT22;29438;50.664;10.098;2022-12-18T13:38:40;-3271.90;82.10
43808;DHT22;29438;50.664;10.098;2022-12-18T13:43:54;-3272.00;82.60
43808;DHT22;29438;50.664;10.098;2022-12-18T13:46:30;-3272.10;82.30
43808;DHT22;29438;50.664;10.098;2022-12-18T13:49:22;-3272.10;82.30
43808;DHT22;29438;50.664;10.098;2022-12-18T13:51:53;-3272.00;82.00
43808;DHT22;29438;50.664;10.098;2022-12-18T13:54:37;-3272.00;82.20
43808;DHT22;29438;50.664;10.098;2022-12-18T13:57:05;-3272.00;81.90
43808;DHT22;29438;50.664;10.098;2022-12-18T13:59:36;-3271.90;82.20
43808;DHT22;29438;50.664;10.098;2022-12-18T14:02:13;-3271.90;82.20
43808;DHT22;29438;50.664;10.098;2022-12-18T14:04:39;-3271.90;82.40
43808;DHT22;29438;50.664;10.098;2022-12-18T14:07:11;-3271.90;82.50
43808;DHT22;29438;50.664;10.098;2022-12-18T14:09:50;-3271.90;82.50
43808;DHT22;29438;50.664;10.098;2022-12-18T14:12:24;-3271.80;82.80
43808;DHT22;29438;50.664;10.098;2022-12-18T14:15:23;-3271.70;83.10
43808;DHT22;29438;50.664;10.098;2022-12-18T14:17:55;-3271.80;83.20
43808;DHT22;29438;50.664;10.098;2022-12-18T14:20:22;-3271.70;83.20
43808;DHT22;29438;50.664;10.098;2022-12-18T14:22:49;-3271.70;83.50
43808;DHT22;29438;50.664;10.098;2022-12-18T14:25:17;-3271.70;83.40
43808;DHT22;29438;50.664;10.098;2022-12-18T14:30:39;-3271.60;83.70
43808;DHT22;29438;50.664;10.098;2022-12-18T14:33:13;-3271.60;83.80
43808;DHT22;29438;50.664;10.098;2022-12-18T14:35:42;-3271.50;84.00
43808;DHT22;29438;50.664;10.098;2022-12-18T14:38:29;-3271.40;84.10
43808;DHT22;29438;50.664;10.098;2022-12-18T14:41:04;-3271.30;84.70
43808;DHT22;29438;50.664;10.098;2022-12-18T14:43:33;-3271.30;84.60
43808;DHT22;29438;50.664;10.098;2022-12-18T14:46:00;-3271.30;84.80
43808;DHT22;29438;50.664;10.098;2022-12-18T14:48:38;-3271.20;84.90
43808;DHT22;29438;50.664;10.098;2022-12-18T14:51:15;-3271.20;85.20
43808;DHT22;29438;50.664;10.098;2022-12-18T14:53:47;-3271.20;85.30
43808;DHT22;29438;50.664;10.098;2022-12-18T14:56:20;-3271.10;85.40
43808;DHT22;29438;50.664;10.098;2022-12-18T14:58:52;-3271.10;85.40
43808;DHT22;29438;50.664;10.098;2022-12-18T15:01:25;-3271.10;85.60
43808;DHT22;29438;50.664;10.098;2022-12-18T15:03:52;-3271.10;85.60
43808;DHT22;29438;50.664;10.098;2022-12-18T15:06:32;-3271.10;85.50
43808;DHT22;29438;50.664;10.098;2022-12-18T15:09:00;-3271.00;85.70
43808;DHT22;29438;50.664;10.098;2022-12-18T15:13:58;-3271.00;85.80
43808;DHT22;29438;50.664;10.098;2022-12-18T15:16:24;-3271.00;85.80
43808;DHT22;29438;50.664;10.098;2022-12-18T15:18:50;-3271.00;85.80
43808;DHT22;29438;50.664;10.098;2022-12-18T15:21:18;-3271.00;85.90
43808;DHT22;29438;50.664;10.098;2022-12-18T15:26:12;-3271.00;86.00
43808;DHT22;29438;50.664;10.098;2022-12-18T15:33:41;-3271.20;85.90
43808;DHT22;29438;50.664;10.098;2022-12-18T15:36:13;-3271.20;85.80
43808;DHT22;29438;50.664;10.098;2022-12-18T15:38:39;-3271.20;85.70
43808;DHT22;29438;50.664;10.098;2022-12-18T15:41:05;-3271.20;85.80
43808;DHT22;29438;50.664;10.098;2022-12-18T15:43:32;-3271.30;85.70
43808;DHT22;29438;50.664;10.098;2022-12-18T15:46:04;-3271.30;85.60
43808;DHT22;29438;50.664;10.098;2022-12-18T15:48:33;-3271.30;85.50
43808;DHT22;29438;50.664;10.098;2022-12-18T15:50:59;-3271.20;85.50
43808;DHT22;29438;50.664;10.098;2022-12-18T15:53:29;-3271.20;85.60
43808;DHT22;29438;50.664;10.098;2022-12-18T15:55:55;-3271.20;85.90
43808;DHT22;29438;50.664;10.098;2022-12-18T15:58:39;-3271.20;85.80
43808;DHT22;29438;50.664;10.098;2022-12-18T16:01:05;-3271.20;86.00
43808;DHT22;29438;50.664;10.098;2022-12-18T16:03:32;-3271.20;85.80
43808;DHT22;29438;50.664;10.098;2022-12-18T16:05:58;-3271.20;85.90
43808;DHT22;29438;50.664;10.098;2022-12-18T16:08:28;-3271.20;85.90
43808;DHT22;29438;50.664;10.098;2022-12-18T16:10:54;-3271.20;86.20
43808;DHT22;29438;50.664;10.098;2022-12-18T16:13:20;-3271.30;86.10
43808;DHT22;29438;50.664;10.098;2022-12-18T16:15:46;-3271.40;86.00
43808;DHT22;29438;50.664;10.098;2022-12-18T16:18:11;-3271.40;85.90
43808;DHT22;29438;50.664;10.098;2022-12-18T16:20:38;-3271.40;86.00
43808;DHT22;29438;50.664;10.098;2022-12-18T16:23:04;-3271.40;85.90
43808;DHT22;29438;50.664;10.098;2022-12-18T16:25:29;-3271.40;85.80
43808;DHT22;29438;50.664;10.098;2022-12-18T16:27:55;-3271.40;85.80
43808;DHT22;29438;50.664;10.098;2022-12-18T16:30:27;-3271.30;85.80
43808;DHT22;29438;50.664;10.098;2022-12-18T16:32:57;-3271.30;86.10
43808;DHT22;29438;50.664;10.098;2022-12-18T16:35:24;-3271.40;86.10
43808;DHT22;29438;50.664;10.098;2022-12-18T16:37:49;-3271.40;86.10